createdAt,value
2018-11-29T00:00:23.501Z,120.20
2018-11-29T00:02:52.086Z,116.87
2018-11-29T00:05:20.485Z,107.90
2018-11-29T00:07:48.908Z,103.10
2018-11-29T00:10:17.313Z,113.17
2018-11-29T00:12:45.729Z,108.63
2018-11-29T00:15:15.069Z,106.93
2018-11-29T00:17:43.695Z,97.80
2018-11-29T00:20:16.129Z,126.40
2018-11-29T00:22:45.342Z,143.37
2018-11-29T00:25:14.961Z,144.40
2018-11-29T00:27:44.656Z,151.40
2018-11-29T00:30:17.135Z,143.13
2018-11-29T00:32:45.555Z,138.83
2018-11-29T00:35:14.819Z,142.73
2018-11-29T00:37:43.372Z,131.43
2018-11-29T00:40:13.901Z,130.27
2018-11-29T00:42:42.359Z,122.03
2018-11-29T00:45:12.938Z,125.93
2018-11-29T00:47:42.030Z,128.30
2018-11-29T00:50:12.307Z,166.00
2018-11-29T00:52:41.826Z,168.73
2018-11-29T00:55:11.359Z,156.33
2018-11-29T00:57:40.214Z,165.63
2018-11-29T01:00:24.337Z,165.77
2018-11-29T01:02:53.395Z,169.57
2018-11-29T01:05:21.816Z,192.30
2018-11-29T01:07:50.233Z,197.93
2018-11-29T01:10:19.174Z,188.80
2018-11-29T01:12:48.225Z,198.50
2018-11-29T01:15:17.638Z,194.50
2018-11-29T01:17:46.923Z,173.60
2018-11-29T01:20:16.465Z,170.03
2018-11-29T01:22:44.869Z,171.83
2018-11-29T01:25:14.161Z,160.83
2018-11-29T01:27:43.623Z,160.07
2018-11-29T01:30:20.869Z,147.17
2018-11-29T01:32:49.297Z,142.20
2018-11-29T01:35:18.806Z,143.73
2018-11-29T01:37:47.253Z,149.53
2018-11-29T01:40:23.285Z,135.63
2018-11-29T01:42:55.818Z,141.07
2018-11-29T01:45:24.591Z,167.37
2018-11-29T01:47:53.023Z,159.53
2018-11-29T01:50:21.423Z,155.00
2018-11-29T01:52:49.842Z,150.67
2018-11-29T01:55:18.246Z,147.03
2018-11-29T01:57:46.670Z,147.33
2018-11-29T02:00:15.855Z,144.60
2018-11-29T02:02:45.332Z,132.00
2018-11-29T02:05:13.752Z,141.50
2018-11-29T02:07:42.155Z,133.90
2018-11-29T02:10:16.998Z,141.07
2018-11-29T02:12:45.381Z,137.33
2018-11-29T02:15:13.778Z,139.43
2018-11-29T02:17:42.158Z,155.80
2018-11-29T02:20:13.314Z,174.33
2018-11-29T02:22:41.726Z,170.80
2018-11-29T02:25:10.142Z,160.73
2018-11-29T02:27:38.562Z,161.73
2018-11-29T02:30:14.324Z,158.40
2018-11-29T02:32:42.718Z,148.17
2018-11-29T02:35:11.174Z,154.00
2018-11-29T02:37:39.574Z,143.70
2018-11-29T02:40:10.544Z,138.40
2018-11-29T02:42:39.258Z,152.83
2018-11-29T02:45:09.767Z,151.70
2018-11-29T02:47:38.188Z,155.97
2018-11-29T02:50:07.834Z,206.73
2018-11-29T02:52:36.487Z,215.70
2018-11-29T02:55:05.822Z,196.60
2018-11-29T02:57:34.225Z,184.73
2018-11-29T03:00:02.642Z,190.63
2018-11-29T03:02:31.070Z,173.93
2018-11-29T03:04:59.526Z,184.07
2018-11-29T03:07:27.989Z,191.37
2018-11-29T03:09:56.391Z,173.17
2018-11-29T03:12:24.801Z,175.03
2018-11-29T03:14:53.210Z,161.90
2018-11-29T03:17:21.607Z,160.80
2018-11-29T03:19:50.628Z,157.80
2018-11-29T03:22:19.021Z,151.80
2018-11-29T03:24:47.444Z,158.33
2018-11-29T03:27:15.839Z,154.67
2018-11-29T03:29:44.258Z,148.50
2018-11-29T03:32:12.683Z,147.40
2018-11-29T03:34:41.090Z,142.57
2018-11-29T03:37:09.506Z,142.57
2018-11-29T03:39:37.925Z,145.03
2018-11-29T03:42:06.553Z,141.17
2018-11-29T03:44:34.983Z,145.63
2018-11-29T03:47:03.379Z,140.17
2018-11-29T03:49:31.787Z,128.87
2018-11-29T03:52:00.190Z,137.87
2018-11-29T03:54:29.528Z,134.83
2018-11-29T03:56:57.942Z,134.30
2018-11-29T03:59:26.355Z,124.47
2018-11-29T04:01:54.767Z,126.07
2018-11-29T04:04:23.157Z,128.57
2018-11-29T04:06:51.575Z,127.63
2018-11-29T04:09:19.973Z,122.73
2018-11-29T04:11:48.399Z,119.23
2018-11-29T04:14:16.807Z,121.80
2018-11-29T04:16:45.191Z,116.03
2018-11-29T04:19:13.598Z,112.63
2018-11-29T04:21:42.007Z,116.10
2018-11-29T04:24:10.430Z,111.97
2018-11-29T04:26:38.832Z,108.90
2018-11-29T04:29:07.245Z,107.40
2018-11-29T04:31:35.635Z,103.83
2018-11-29T04:34:04.268Z,100.57
2018-11-29T04:36:32.665Z,107.53
2018-11-29T04:39:01.090Z,109.50
2018-11-29T04:41:29.494Z,101.33
2018-11-29T04:43:57.955Z,101.73
2018-11-29T04:46:42.423Z,101.17
2018-11-29T04:49:10.915Z,94.40
2018-11-29T04:51:39.389Z,100.13
2018-11-29T04:54:08.666Z,95.93
2018-11-29T04:56:37.074Z,93.57
2018-11-29T04:59:05.768Z,97.13
2018-11-29T05:01:34.200Z,97.47
2018-11-29T05:04:02.599Z,94.40
2018-11-29T05:06:31.001Z,91.83
2018-11-29T05:08:59.478Z,91.23
2018-11-29T05:11:27.866Z,91.23
2018-11-29T05:13:56.274Z,90.97
2018-11-29T05:16:24.671Z,87.63
2018-11-29T05:18:53.078Z,86.10
2018-11-29T05:21:21.546Z,82.77
2018-11-29T05:23:49.938Z,83.03
2018-11-29T05:26:18.362Z,77.40
2018-11-29T05:28:46.754Z,84.07
2018-11-29T05:31:15.158Z,77.13
2018-11-29T05:33:43.566Z,79.50
2018-11-29T05:36:11.979Z,76.73
2018-11-29T05:38:40.382Z,81.70
2018-11-29T05:41:08.823Z,78.40
2018-11-29T05:43:37.219Z,75.67
2018-11-29T05:46:05.666Z,71.40
2018-11-29T05:48:34.117Z,72.60
2018-11-29T05:51:02.510Z,75.80
2018-11-29T05:53:30.908Z,69.90
2018-11-29T05:55:59.315Z,70.00
2018-11-29T05:58:27.739Z,71.40
2018-11-29T06:00:56.349Z,69.37
2018-11-29T06:03:24.810Z,69.17
2018-11-29T06:05:53.214Z,69.07
2018-11-29T06:08:21.647Z,66.20
2018-11-29T06:10:50.045Z,62.53
2018-11-29T06:13:18.460Z,66.60
2018-11-29T06:15:46.871Z,66.83
2018-11-29T06:18:15.291Z,65.93
2018-11-29T06:20:43.692Z,60.90
2018-11-29T06:23:12.090Z,59.27
2018-11-29T06:25:40.500Z,61.60
2018-11-29T06:28:08.907Z,62.97
2018-11-29T06:30:37.412Z,58.90
2018-11-29T06:33:05.817Z,59.17
2018-11-29T06:35:34.241Z,62.00
2018-11-29T06:38:02.642Z,60.60
2018-11-29T06:40:31.051Z,55.37
2018-11-29T06:42:59.452Z,51.97
2018-11-29T06:45:27.859Z,53.47
2018-11-29T06:47:56.293Z,55.40
2018-11-29T06:50:24.755Z,55.80
2018-11-29T06:52:53.189Z,54.83
2018-11-29T06:55:23.546Z,51.93
2018-11-29T06:57:53.585Z,52.67
2018-11-29T07:00:28.440Z,48.40
2018-11-29T07:02:56.934Z,49.70
2018-11-29T07:05:25.330Z,50.73
2018-11-29T07:07:53.740Z,47.27
2018-11-29T07:10:27.618Z,48.30
2018-11-29T07:12:56.046Z,47.87
2018-11-29T07:15:24.454Z,52.50
2018-11-29T07:17:52.851Z,47.20
2018-11-29T07:20:21.289Z,48.57
2018-11-29T07:22:49.702Z,46.70
2018-11-29T07:25:18.222Z,52.20
2018-11-29T07:27:46.662Z,44.27
2018-11-29T07:30:17.081Z,43.57
2018-11-29T07:32:46.078Z,46.23
2018-11-29T07:35:15.550Z,43.57
2018-11-29T07:37:43.979Z,42.20
2018-11-29T07:40:14.579Z,42.83
2018-11-29T07:42:43.138Z,42.67
2018-11-29T07:45:13.177Z,39.27
2018-11-29T07:47:41.596Z,40.77
2018-11-29T07:50:13.230Z,40.63
2018-11-29T07:52:41.626Z,41.13
2018-11-29T07:55:17.875Z,41.40
2018-11-29T07:57:47.143Z,36.27
2018-11-29T08:00:17.703Z,40.13
2018-11-29T08:02:46.124Z,38.50
2018-11-29T08:05:15.386Z,38.00
2018-11-29T08:07:47.747Z,37.97
2018-11-29T08:10:15.798Z,35.67
2018-11-29T08:12:44.298Z,33.60
2018-11-29T08:15:13.980Z,39.00
2018-11-29T08:17:42.476Z,35.60
2018-11-29T08:20:12.026Z,36.13
2018-11-29T08:22:40.482Z,35.27
2018-11-29T08:25:09.748Z,34.97
2018-11-29T08:27:38.158Z,33.43
2018-11-29T08:30:09.195Z,37.23
2018-11-29T08:32:37.746Z,32.67
2018-11-29T08:35:07.251Z,32.43
2018-11-29T08:37:35.856Z,60.80
2018-11-29T08:40:05.851Z,95.73
2018-11-29T08:42:34.803Z,106.47
2018-11-29T08:45:03.223Z,93.37
2018-11-29T08:47:31.653Z,96.00
2018-11-29T08:50:00.079Z,89.03
2018-11-29T08:52:28.526Z,89.57
2018-11-29T08:54:56.923Z,82.27
2018-11-29T08:57:25.406Z,88.73
2018-11-29T08:59:53.922Z,93.20
2018-11-29T09:02:22.338Z,83.23
2018-11-29T09:04:50.780Z,125.40
2018-11-29T09:07:19.202Z,129.27
2018-11-29T09:09:47.617Z,133.23
2018-11-29T09:12:16.071Z,128.00
2018-11-29T09:14:44.527Z,115.67
2018-11-29T09:17:12.931Z,104.23
2018-11-29T09:19:41.333Z,111.63
2018-11-29T09:22:09.761Z,107.13
2018-11-29T09:24:38.166Z,107.83
2018-11-29T09:27:06.954Z,101.83
2018-11-29T09:29:35.409Z,122.17
2018-11-29T09:32:03.838Z,126.73
2018-11-29T09:34:32.368Z,150.57
2018-11-29T09:37:00.783Z,137.07
2018-11-29T09:39:29.226Z,138.43
2018-11-29T09:41:57.924Z,133.93
2018-11-29T09:44:26.313Z,129.40
2018-11-29T09:46:54.721Z,126.37
2018-11-29T09:49:23.335Z,128.10
2018-11-29T09:51:51.733Z,119.30
2018-11-29T09:54:21.300Z,121.73
2018-11-29T09:56:49.758Z,121.37
2018-11-29T09:59:18.180Z,118.33
2018-11-29T10:01:46.663Z,113.37
2018-11-29T10:04:15.086Z,111.30
2018-11-29T10:06:43.488Z,112.73
2018-11-29T10:09:11.896Z,114.17
2018-11-29T10:11:40.282Z,116.87
2018-11-29T10:14:08.778Z,155.70
2018-11-29T10:16:37.178Z,169.80
2018-11-29T10:19:05.726Z,138.50
2018-11-29T10:21:34.142Z,157.00
2018-11-29T10:24:02.526Z,138.07
2018-11-29T10:26:31.013Z,160.40
2018-11-29T10:28:59.436Z,146.10
2018-11-29T10:31:27.829Z,167.03
2018-11-29T10:33:56.302Z,164.37
2018-11-29T10:36:24.701Z,163.30
2018-11-29T10:38:53.109Z,154.50
2018-11-29T10:41:21.531Z,153.03
2018-11-29T10:43:49.945Z,146.97
2018-11-29T10:46:18.348Z,154.33
2018-11-29T10:48:46.778Z,142.20
2018-11-29T10:51:15.170Z,137.57
2018-11-29T10:53:43.571Z,140.47
2018-11-29T10:56:12.033Z,152.63
2018-11-29T10:58:40.499Z,140.57
2018-11-29T11:01:14.259Z,172.87
2018-11-29T11:03:42.689Z,178.87
2018-11-29T11:06:11.110Z,166.97
2018-11-29T11:08:39.553Z,156.23
2018-11-29T11:11:08.604Z,160.60
2018-11-29T11:13:38.481Z,120.47
2018-11-29T11:16:07.362Z,132.33
2018-11-29T11:18:35.946Z,160.77
2018-11-29T11:21:04.321Z,155.13
2018-11-29T11:23:32.765Z,151.83
2018-11-29T11:26:01.169Z,144.13
2018-11-29T11:28:29.620Z,136.80
2018-11-29T11:30:58.020Z,139.83
2018-11-29T11:33:26.414Z,126.17
2018-11-29T11:35:54.818Z,119.43
2018-11-29T11:38:23.238Z,124.67
2018-11-29T11:40:51.718Z,127.87
2018-11-29T11:43:20.114Z,126.00
2018-11-29T11:45:48.539Z,139.13
2018-11-29T11:48:16.943Z,184.83
2018-11-29T11:50:45.356Z,164.83
2018-11-29T11:53:13.764Z,142.50
2018-11-29T11:55:42.205Z,138.83
2018-11-29T11:58:10.609Z,140.77
2018-11-29T12:00:39.531Z,129.67
2018-11-29T12:03:10.420Z,140.60
2018-11-29T12:05:38.833Z,119.20
2018-11-29T12:08:07.505Z,118.73
2018-11-29T12:10:36.501Z,126.17
2018-11-29T12:13:05.698Z,123.97
2018-11-29T12:15:34.106Z,114.70
2018-11-29T12:18:02.477Z,118.07
2018-11-29T12:20:30.891Z,111.83
2018-11-29T12:22:59.265Z,140.97
2018-11-29T12:25:27.694Z,111.87
2018-11-29T12:27:56.095Z,105.43
2018-11-29T12:30:26.823Z,105.63
2018-11-29T12:32:57.630Z,101.23
2018-11-29T12:35:26.073Z,86.43
2018-11-29T12:37:54.470Z,80.53
2018-11-29T12:40:22.903Z,72.63
2018-11-29T12:42:51.380Z,64.60
2018-11-29T12:45:19.778Z,55.23
2018-11-29T12:47:48.241Z,55.60
2018-11-29T12:50:18.553Z,60.70
2018-11-29T12:52:47.399Z,62.83
2018-11-29T12:55:16.782Z,51.97
2018-11-29T12:57:45.302Z,52.67
2018-11-29T13:00:15.878Z,49.33
2018-11-29T13:02:47.425Z,48.03
2018-11-29T13:05:15.919Z,47.83
2018-11-29T13:07:44.575Z,47.17
2018-11-29T13:10:14.603Z,43.27
2018-11-29T13:12:43.043Z,47.20
2018-11-29T13:15:16.079Z,43.03
2018-11-29T13:17:44.570Z,45.53
2018-11-29T13:20:15.170Z,41.57
2018-11-29T13:22:43.619Z,42.17
2018-11-29T13:25:16.519Z,33.93
2018-11-29T13:27:44.974Z,35.70
2018-11-29T13:30:19.478Z,78.30
2018-11-29T13:32:48.962Z,40.03
2018-11-29T13:35:20.175Z,39.97
2018-11-29T13:38:25.394Z,48.00
2018-11-29T13:40:53.880Z,42.20
2018-11-29T13:43:22.314Z,36.50
2018-11-29T13:45:50.740Z,36.23
2018-11-29T13:48:19.155Z,54.93
2018-11-29T13:50:47.599Z,32.50
2018-11-29T13:53:16.041Z,37.67
2018-11-29T13:55:44.551Z,38.43
2018-11-29T13:58:12.907Z,36.20
2018-11-29T14:00:41.403Z,38.37
2018-11-29T14:03:11.396Z,30.63
2018-11-29T14:05:39.870Z,32.40
2018-11-29T14:08:09.466Z,26.03
2018-11-29T14:10:38.857Z,24.70
2018-11-29T14:13:08.703Z,23.97
2018-11-29T14:15:37.678Z,29.70
2018-11-29T14:18:06.575Z,25.03
2018-11-29T14:20:35.518Z,22.00
2018-11-29T14:23:03.552Z,37.10
2018-11-29T14:25:32.601Z,32.63
2018-11-29T14:28:01.030Z,22.80
2018-11-29T14:30:30.248Z,22.17
2018-11-29T14:33:00.428Z,26.50
2018-11-29T14:35:28.986Z,18.07
2018-11-29T14:37:57.368Z,17.40
2018-11-29T14:40:27.315Z,25.70
2018-11-29T14:42:55.753Z,24.77
2018-11-29T14:45:26.007Z,20.00
2018-11-29T14:47:54.947Z,36.17
2018-11-29T14:50:26.672Z,32.90
2018-11-29T14:52:55.211Z,26.03
2018-11-29T14:55:23.660Z,32.20
2018-11-29T14:57:52.217Z,27.23
2018-11-29T15:00:20.670Z,25.40
2018-11-29T15:02:49.328Z,30.77
2018-11-29T15:05:23.143Z,33.43
2018-11-29T15:07:51.592Z,30.07
2018-11-29T15:10:20.035Z,26.47
2018-11-29T15:12:48.543Z,27.30
2018-11-29T15:15:17.940Z,28.73
2018-11-29T15:17:47.649Z,28.17
2018-11-29T15:20:18.709Z,23.93
2018-11-29T15:22:47.367Z,21.60
2018-11-29T15:25:15.687Z,24.37
2018-11-29T15:27:44.191Z,29.07
2018-11-29T15:30:14.827Z,29.33
2018-11-29T15:32:43.275Z,24.47
2018-11-29T15:35:11.735Z,31.63
2018-11-29T15:37:41.071Z,26.47
2018-11-29T15:40:11.892Z,20.67
2018-11-29T15:42:40.315Z,23.73
2018-11-29T15:45:20.966Z,33.10
2018-11-29T15:47:49.478Z,33.77
2018-11-29T15:50:17.898Z,33.37
2018-11-29T15:52:46.446Z,35.70
2018-11-29T15:55:23.224Z,36.47
2018-11-29T15:57:53.283Z,28.00
2018-11-29T16:00:26.856Z,31.90
2018-11-29T16:02:56.563Z,40.83
2018-11-29T16:05:24.988Z,38.13
2018-11-29T16:07:53.435Z,34.20
2018-11-29T16:10:23.940Z,41.30
2018-11-29T16:12:52.413Z,44.00
2018-11-29T16:15:21.426Z,39.17
2018-11-29T16:17:50.841Z,40.10
2018-11-29T16:20:24.582Z,42.67
2018-11-29T16:22:53.053Z,40.70
2018-11-29T16:25:21.474Z,34.80
2018-11-29T16:27:50.066Z,39.00
2018-11-29T16:30:31.055Z,36.00
2018-11-29T16:33:06.179Z,33.27
2018-11-29T16:35:34.700Z,43.40
2018-11-29T16:38:03.131Z,35.63
2018-11-29T16:40:31.586Z,30.87
2018-11-29T16:43:00.034Z,32.10
2018-11-29T16:45:28.649Z,30.83
2018-11-29T16:47:57.092Z,30.57
2018-11-29T16:50:25.657Z,31.43
2018-11-29T16:52:54.154Z,32.13
2018-11-29T16:55:22.751Z,29.47
2018-11-29T16:57:53.467Z,27.37
2018-11-29T17:00:23.828Z,24.57
2018-11-29T17:02:52.290Z,27.10
2018-11-29T17:05:20.818Z,60.53
2018-11-29T17:07:49.282Z,36.90
2018-11-29T17:10:19.456Z,40.50
2018-11-29T17:12:51.742Z,45.83
2018-11-29T17:15:20.312Z,51.83
2018-11-29T17:17:49.492Z,45.97
2018-11-29T17:20:18.930Z,42.33
2018-11-29T17:22:49.374Z,41.27
2018-11-29T17:25:17.838Z,40.33
2018-11-29T17:27:46.315Z,38.20
2018-11-29T17:30:21.768Z,34.23
2018-11-29T17:32:51.358Z,30.90
2018-11-29T17:35:20.089Z,32.83
2018-11-29T17:37:49.679Z,34.23
2018-11-29T17:40:19.513Z,28.00
2018-11-29T17:42:48.063Z,27.83
2018-11-29T17:45:18.001Z,44.53
2018-11-29T17:47:46.904Z,46.17
2018-11-29T17:50:22.679Z,46.07
2018-11-29T17:52:51.155Z,40.30
2018-11-29T17:55:19.744Z,38.37
2018-11-29T17:57:48.522Z,42.80
2018-11-29T18:00:20.427Z,41.30
2018-11-29T18:02:48.891Z,36.07
2018-11-29T18:05:17.348Z,39.20
2018-11-29T18:07:45.778Z,34.20
2018-11-29T18:10:16.407Z,32.27
2018-11-29T18:12:45.715Z,35.87
2018-11-29T18:15:18.821Z,31.67
2018-11-29T18:17:47.304Z,33.90
2018-11-29T18:20:15.803Z,45.08
2018-11-29T18:22:44.375Z,50.93
2018-11-29T18:25:14.136Z,57.33
2018-11-29T18:27:44.629Z,59.63
2018-11-29T18:30:21.926Z,73.17
2018-11-29T18:32:50.494Z,69.33
2018-11-29T18:35:19.004Z,64.43
2018-11-29T18:37:47.846Z,69.17
2018-11-29T18:40:18.484Z,64.30
2018-11-29T18:42:51.397Z,57.57
2018-11-29T18:45:20.406Z,60.23
2018-11-29T18:47:50.138Z,57.77
2018-11-29T18:50:20.506Z,57.03
2018-11-29T18:52:49.085Z,56.10
2018-11-29T18:55:18.016Z,52.13
2018-11-29T18:57:47.380Z,54.07
2018-11-29T19:00:21.146Z,47.80
2018-11-29T19:02:49.714Z,48.13
2018-11-29T19:05:18.309Z,51.73
2018-11-29T19:07:48.704Z,46.00
2018-11-29T19:10:18.213Z,48.40
2018-11-29T19:12:55.339Z,45.77
2018-11-29T19:15:23.787Z,45.80
2018-11-29T19:17:52.851Z,47.37
2018-11-29T19:20:21.464Z,44.23
2018-11-29T19:22:49.959Z,40.93
2018-11-29T19:25:19.454Z,41.40
2018-11-29T19:27:47.946Z,40.17
2018-11-29T19:30:19.675Z,37.13
2018-11-29T19:32:50.862Z,40.47
2018-11-29T19:35:19.359Z,37.50
2018-11-29T19:37:47.851Z,39.23
2018-11-29T19:40:17.088Z,42.47
2018-11-29T19:42:45.819Z,40.30
2018-11-29T19:45:16.017Z,41.30
2018-11-29T19:47:44.551Z,38.37
2018-11-29T19:50:16.276Z,33.57
2018-11-29T19:52:46.367Z,35.43
2018-11-29T19:55:16.680Z,34.20
2018-11-29T19:57:45.321Z,31.63
2018-11-29T20:00:14.458Z,35.80
2018-11-29T20:02:44.623Z,36.53
2018-11-29T20:05:13.642Z,35.63
2018-11-29T20:07:42.208Z,37.53
2018-11-29T20:10:14.063Z,42.07
2018-11-29T20:12:43.114Z,41.67
2018-11-29T20:15:15.607Z,47.57
2018-11-29T20:17:44.106Z,44.93
2018-11-29T20:20:12.995Z,51.00
2018-11-29T20:22:42.019Z,51.57
2018-11-29T20:25:12.871Z,50.63
2018-11-29T20:27:41.655Z,49.23
2018-11-29T20:30:14.126Z,49.80
2018-11-29T20:32:42.662Z,51.37
2018-11-29T20:35:11.914Z,49.30
2018-11-29T20:37:40.716Z,47.07
2018-11-29T20:40:18.634Z,41.17
2018-11-29T20:42:48.508Z,40.43
2018-11-29T20:45:21.283Z,38.87
2018-11-29T20:47:49.735Z,37.63
2018-11-29T20:50:19.735Z,37.13
2018-11-29T20:52:49.488Z,33.93
2018-11-29T20:55:23.717Z,30.87
2018-11-29T20:57:52.138Z,32.73
2018-11-29T21:00:20.562Z,30.03
2018-11-29T21:02:49.119Z,33.60
2018-11-29T21:05:18.734Z,34.33
2018-11-29T21:07:50.065Z,32.07
2018-11-29T21:10:22.902Z,35.13
2018-11-29T21:12:51.459Z,38.40
2018-11-29T21:15:20.015Z,42.40
2018-11-29T21:17:48.515Z,33.67
2018-11-29T21:20:19.059Z,43.97
2018-11-29T21:22:48.788Z,39.57
2018-11-29T21:25:20.574Z,36.77
2018-11-29T21:27:49.009Z,35.40
2018-11-29T21:30:17.679Z,34.73
2018-11-29T21:32:46.894Z,40.27
2018-11-29T21:35:18.738Z,39.17
2018-11-29T21:37:47.166Z,40.23
2018-11-29T21:40:20.080Z,44.00
2018-11-29T21:42:48.545Z,50.27
2018-11-29T21:45:17.166Z,56.17
2018-11-29T21:47:45.663Z,60.13
2018-11-29T21:50:14.140Z,63.00
2018-11-29T21:52:42.549Z,73.50
2018-11-29T21:55:10.993Z,60.57
2018-11-29T21:57:39.558Z,60.13
2018-11-29T22:00:12.918Z,74.77
2018-11-29T22:02:44.198Z,69.53
2018-11-29T22:05:13.451Z,72.27
2018-11-29T22:07:41.945Z,76.70
2018-11-29T22:10:10.447Z,76.93
2018-11-29T22:12:38.895Z,85.90
2018-11-29T22:15:09.572Z,87.90
2018-11-29T22:18:48.136Z,86.13
2018-11-29T22:21:16.519Z,97.87
2018-11-29T22:23:45.370Z,105.13
2018-11-29T22:26:15.240Z,110.87
2018-11-29T22:28:43.843Z,129.73
2018-11-29T22:31:12.676Z,137.23
2018-11-29T22:33:41.103Z,135.73
2018-11-29T22:36:09.539Z,145.07
2018-11-29T22:38:37.979Z,150.53
2018-11-29T22:41:06.485Z,140.83
2018-11-29T22:43:35.418Z,146.73
2018-11-29T22:46:03.900Z,156.17
2018-11-29T22:48:32.451Z,157.97
2018-11-29T22:51:00.895Z,150.37
2018-11-29T22:53:29.544Z,150.43
2018-11-29T22:55:57.999Z,142.17
2018-11-29T22:58:26.449Z,139.27
2018-11-29T23:00:54.918Z,131.63
2018-11-29T23:03:24.485Z,147.30
2018-11-29T23:05:53.111Z,169.93
2018-11-29T23:08:21.526Z,167.30
2018-11-29T23:10:49.950Z,174.67
2018-11-29T23:13:18.381Z,174.77
2018-11-29T23:15:46.806Z,171.47
2018-11-29T23:18:15.303Z,166.80
2018-11-29T23:20:43.724Z,160.70
2018-11-29T23:23:12.148Z,165.80
2018-11-29T23:25:40.626Z,157.87
2018-11-29T23:28:09.827Z,162.53
2018-11-29T23:30:38.259Z,159.13
2018-11-29T23:33:06.670Z,166.03
2018-11-29T23:35:35.099Z,177.50
2018-11-29T23:38:03.506Z,174.50
2018-11-29T23:40:31.991Z,184.43
2018-11-29T23:43:00.427Z,170.33
2018-11-29T23:45:28.867Z,169.20
2018-11-29T23:47:57.311Z,165.37
2018-11-29T23:50:25.726Z,163.10
2018-11-29T23:52:54.167Z,158.50
2018-11-29T23:55:22.891Z,164.47
2018-11-29T23:57:51.416Z,161.87
